This is the latest recevied weather packets stored in our database for station/object GW1495. If no packets are shown the sender has not sent any weather packets the latest 10 day(s).
| Time | Temp. | Humidity | Pressure | Rain* | Wind** | Luminosity | Snow |
|---|---|---|---|---|---|---|---|
| 1777436667 | 15.56° C | 97% | 1018.9 hPa | 0 mm | - | - | - |
| 1777433447 | 15.56° C | 97% | 1019.9 hPa | 13.21 mm | - | - | - |
| 1777431256 | 16.11° C | 95% | 1020.3 hPa | 13.21 mm | - | - | - |
| 1777430213 | 16.11° C | 94% | 1020.9 hPa | 13.21 mm | - | - | - |
| 1777428392 | 16.11° C | 94% | 1020.9 hPa | 13.21 mm | - | - | - |
| 1777421908 | 17.78° C | 89% | 1018.9 hPa | 13.21 mm | - | - | - |
| 1777420098 | 18.33° C | 89% | 1019.6 hPa | 13.21 mm | - | - | - |
| 1777418667 | 19.44° C | 86% | 1019.3 hPa | 13.21 mm | - | - | - |
| 1777417608 | 20° C | 83% | 1018.6 hPa | 13.21 mm | - | - | - |
| 1777417237 | 21.11° C | 80% | 1018.6 hPa | 13.21 mm | - | - | - |
| 1777406074 | 23.89° C | 68% | 1020.3 hPa | 13.21 mm | - | - | - |
| 1777400331 | 22.78° C | 75% | 1020.9 hPa | 13.21 mm | - | - | - |
| 1777399601 | 22.78° C | 68% | 1020.9 hPa | 13.21 mm | - | - | - |
| 1777398136 | 23.33° C | 66% | 1020.9 hPa | 13.21 mm | - | - | - |
| 1777395648 | 22.22° C | 66% | 1021.3 hPa | 13.21 mm | - | - | - |
| 1777394924 | 22.78° C | 66% | 1021.3 hPa | 13.21 mm | - | - | - |
| 1777394204 | 22.78° C | 66% | 1021.6 hPa | 13.21 mm | - | - | - |
| 1777392754 | 21.11° C | 69% | 1021.6 hPa | 13.21 mm | - | - | - |
| 1777388784 | 19.44° C | 76% | 1021.3 hPa | 13.21 mm | - | - | - |
| 1777388452 | 18.89° C | 77% | 1021.3 hPa | 13.21 mm | - | - | - |
| 1777382664 | 15.56° C | 95% | 1020.6 hPa | 13.21 mm | - | - | - |
| 1777380158 | 13.89° C | 99% | 1020.9 hPa | 13.21 mm | - | - | - |
| 1777379789 | 13.33° C | 99% | 1020.9 hPa | 13.21 mm | - | - | - |
| 1777379443 | 13.33° C | 99% | 1020.9 hPa | 13.21 mm | - | - | - |
| 1777377651 | 13.33° C | 99% | 1020.9 hPa | 13.21 mm | - | - | - |
* Rain since midnight (hover to see other rain measurements)
** Current wind speed in m/s (hover to see current wind gust speed)